createdAt,value
2023-05-07T00:01:10.299Z,1.30
2023-05-07T00:03:42.369Z,1.60
2023-05-07T00:06:21.013Z,1.30
2023-05-07T00:08:53.334Z,1.48
2023-05-07T00:11:25.068Z,1.30
2023-05-07T00:13:55.349Z,1.23
2023-05-07T00:16:25.570Z,1.13
2023-05-07T00:18:57.073Z,1.48
2023-05-07T00:21:29.194Z,1.17
2023-05-07T00:23:58.785Z,1.40
2023-05-07T00:26:32.130Z,1.25
2023-05-07T00:29:06.244Z,1.20
2023-05-07T00:31:37.658Z,1.25
2023-05-07T00:34:10.009Z,1.33
2023-05-07T00:36:43.752Z,1.30
2023-05-07T00:39:18.364Z,1.20
2023-05-07T00:41:51.164Z,1.40
2023-05-07T00:44:22.472Z,1.50
2023-05-07T00:46:54.305Z,1.30
2023-05-07T00:49:28.714Z,1.52
2023-05-07T00:52:01.355Z,1.60
2023-05-07T00:54:32.972Z,1.50
2023-05-07T00:57:06.572Z,1.58
2023-05-07T01:00:48.080Z,1.40
2023-05-07T01:03:19.451Z,1.42
2023-05-07T01:05:52.415Z,1.55
2023-05-07T01:08:24.969Z,1.58
2023-05-07T01:10:57.706Z,1.50
2023-05-07T01:13:30.465Z,1.70
2023-05-07T01:16:04.386Z,1.60
2023-05-07T01:18:34.831Z,1.58
2023-05-07T01:21:08.587Z,1.75
2023-05-07T01:23:42.148Z,1.73
2023-05-07T01:26:15.912Z,1.75
2023-05-07T01:28:49.533Z,1.83
2023-05-07T01:31:21.885Z,1.90
2023-05-07T01:33:55.841Z,1.88
2023-05-07T01:36:33.127Z,2.00
2023-05-07T01:39:07.621Z,2.00
2023-05-07T01:41:44.243Z,1.70
2023-05-07T01:44:26.540Z,1.63
2023-05-07T01:47:07.518Z,5.00
2023-05-07T01:49:39.719Z,6.03
2023-05-07T01:52:19.180Z,4.20
2023-05-07T01:54:51.515Z,2.90
2023-05-07T01:57:21.868Z,2.30
2023-05-07T01:59:55.829Z,1.90
2023-05-07T02:02:28.341Z,1.90
2023-05-07T02:07:33.895Z,1.60
2023-05-07T02:10:05.418Z,1.80
2023-05-07T02:12:36.915Z,1.60
2023-05-07T02:15:07.962Z,1.80
2023-05-07T02:18:01.587Z,1.75
2023-05-07T02:20:37.492Z,1.70
2023-05-07T02:23:17.110Z,1.83
2023-05-07T02:25:52.483Z,1.80
2023-05-07T02:28:24.998Z,1.90
2023-05-07T02:31:03.806Z,1.92
2023-05-07T02:33:37.713Z,1.80
2023-05-07T02:36:13.262Z,1.60
2023-05-07T02:39:02.862Z,1.80
2023-05-07T02:41:34.373Z,1.80
2023-05-07T02:44:06.088Z,2.00
2023-05-07T02:47:02.318Z,1.98
2023-05-07T02:49:36.376Z,1.75
2023-05-07T02:52:10.247Z,2.00
2023-05-07T02:54:42.451Z,1.70
2023-05-07T02:57:17.096Z,1.88
2023-05-07T02:59:51.566Z,2.05
2023-05-07T03:02:24.287Z,1.80
2023-05-07T03:04:54.987Z,1.75
2023-05-07T03:07:29.306Z,1.67
2023-05-07T03:10:04.454Z,2.00
2023-05-07T03:12:36.221Z,1.90
2023-05-07T03:15:06.974Z,1.90
2023-05-07T03:17:42.360Z,2.10
2023-05-07T03:20:19.303Z,1.73
2023-05-07T03:22:52.211Z,2.00
2023-05-07T03:25:24.739Z,2.00
2023-05-07T03:28:00.452Z,1.85
2023-05-07T03:33:56.997Z,1.98
2023-05-07T03:36:31.024Z,2.10
2023-05-07T03:39:03.090Z,2.00
2023-05-07T03:41:42.318Z,2.25
2023-05-07T03:44:17.811Z,2.20
2023-05-07T03:46:50.323Z,2.30
2023-05-07T03:49:24.087Z,2.10
2023-05-07T03:51:56.395Z,2.20
2023-05-07T03:54:27.552Z,2.03
2023-05-07T03:56:59.073Z,2.25
2023-05-07T03:59:30.671Z,2.38
2023-05-07T04:02:05.229Z,2.58
2023-05-07T04:04:39.599Z,2.42
2023-05-07T04:07:12.832Z,2.40
2023-05-07T04:11:20.196Z,2.70
2023-05-07T04:14:10.308Z,2.33
2023-05-07T04:16:54.607Z,2.28
2023-05-07T04:19:26.402Z,2.28
2023-05-07T04:22:00.244Z,2.28
2023-05-07T04:24:37.697Z,2.33
2023-05-07T04:27:09.441Z,2.15
2023-05-07T04:29:41.074Z,2.25
2023-05-07T04:35:56.624Z,1.90
2023-05-07T04:38:54.974Z,2.30
2023-05-07T04:41:48.792Z,2.30
2023-05-07T04:44:19.005Z,2.53
2023-05-07T04:46:50.542Z,2.50
2023-05-07T04:49:21.610Z,2.22
2023-05-07T04:51:52.235Z,2.30
2023-05-07T04:54:25.427Z,2.40
2023-05-07T04:56:56.519Z,2.05
2023-05-07T04:59:26.905Z,2.45
2023-05-07T05:01:57.439Z,2.38
2023-05-07T05:04:28.115Z,2.50
2023-05-07T05:06:57.741Z,2.40
2023-05-07T05:09:28.998Z,2.55
2023-05-07T05:11:58.537Z,2.60
2023-05-07T05:14:28.462Z,2.50
2023-05-07T05:16:58.740Z,2.60
2023-05-07T05:19:29.336Z,2.63
2023-05-07T05:21:59.616Z,2.35
2023-05-07T05:24:30.519Z,2.65
2023-05-07T05:27:02.005Z,2.42
2023-05-07T05:29:33.489Z,2.70
2023-05-07T05:32:04.419Z,2.60
2023-05-07T05:34:35.174Z,2.80
2023-05-07T05:37:06.344Z,2.33
2023-05-07T05:39:37.663Z,2.17
2023-05-07T05:42:08.350Z,2.40
2023-05-07T05:44:39.034Z,2.30
2023-05-07T05:47:09.269Z,2.47
2023-05-07T05:49:39.984Z,2.60
2023-05-07T05:52:13.011Z,2.58
2023-05-07T05:54:45.466Z,2.60
2023-05-07T05:57:15.353Z,2.45
2023-05-07T05:59:46.944Z,2.60
2023-05-07T06:02:18.318Z,2.60
2023-05-07T06:04:49.505Z,2.50
2023-05-07T06:07:22.207Z,2.50
2023-05-07T06:09:54.334Z,2.60
2023-05-07T06:12:24.929Z,2.63
2023-05-07T06:14:55.336Z,2.67
2023-05-07T06:17:25.750Z,2.47
2023-05-07T06:19:55.648Z,2.53
2023-05-07T06:22:25.921Z,2.92
2023-05-07T06:24:55.749Z,2.90
2023-05-07T06:27:26.649Z,2.70
2023-05-07T06:29:57.834Z,2.53
2023-05-07T06:32:28.143Z,2.42
2023-05-07T06:34:58.131Z,2.70
2023-05-07T06:37:28.833Z,2.63
2023-05-07T06:40:02.873Z,2.58
2023-05-07T06:42:34.651Z,2.63
2023-05-07T06:45:22.616Z,2.40
2023-05-07T06:47:52.902Z,2.60
2023-05-07T06:50:22.971Z,2.60
2023-05-07T06:52:56.617Z,2.67
2023-05-07T06:55:28.059Z,2.20
2023-05-07T06:58:02.680Z,2.53
2023-05-07T07:00:33.327Z,2.38
2023-05-07T07:03:02.444Z,2.53
2023-05-07T07:05:33.101Z,2.70
2023-05-07T07:08:05.504Z,2.50
2023-05-07T07:10:34.500Z,2.60
2023-05-07T07:13:05.825Z,2.53
2023-05-07T07:15:35.900Z,2.60
2023-05-07T07:18:06.559Z,2.53
2023-05-07T07:20:37.143Z,2.42
2023-05-07T07:23:09.186Z,2.70
2023-05-07T07:25:38.672Z,2.40
2023-05-07T07:28:09.304Z,2.50
2023-05-07T07:30:42.398Z,2.75
2023-05-07T07:33:15.412Z,2.65
2023-05-07T07:35:47.053Z,2.70
2023-05-07T07:38:18.424Z,2.70
2023-05-07T07:40:50.930Z,2.60
2023-05-07T07:43:21.861Z,2.72
2023-05-07T07:45:52.249Z,2.60
2023-05-07T07:48:22.720Z,2.60
2023-05-07T07:50:53.563Z,2.35
2023-05-07T07:53:23.057Z,2.65
2023-05-07T07:55:58.733Z,2.58
2023-05-07T07:58:32.332Z,2.60
2023-05-07T08:01:02.006Z,2.80
2023-05-07T08:03:34.101Z,2.70
2023-05-07T08:06:05.500Z,2.50
2023-05-07T08:08:37.665Z,2.45
2023-05-07T08:11:07.634Z,2.50
2023-05-07T08:13:41.302Z,2.72
2023-05-07T08:16:12.014Z,2.42
2023-05-07T08:18:48.292Z,2.60
2023-05-07T08:21:19.393Z,2.58
2023-05-07T08:23:49.780Z,2.95
2023-05-07T08:26:21.073Z,2.67
2023-05-07T08:28:50.801Z,2.50
2023-05-07T08:31:22.398Z,2.65
2023-05-07T08:33:53.181Z,2.40
2023-05-07T08:36:22.263Z,2.40
2023-05-07T08:38:53.434Z,2.50
2023-05-07T08:41:25.103Z,2.80
2023-05-07T08:43:55.770Z,2.38
2023-05-07T08:46:28.059Z,2.30
2023-05-07T08:48:58.611Z,2.33
2023-05-07T08:51:29.676Z,2.50
2023-05-07T08:54:02.275Z,2.50
2023-05-07T08:56:36.705Z,2.50
2023-05-07T08:59:08.032Z,2.70
2023-05-07T09:01:38.772Z,2.45
2023-05-07T09:04:13.069Z,2.40
2023-05-07T09:06:46.735Z,2.55
2023-05-07T09:09:21.618Z,2.50
2023-05-07T09:12:01.364Z,2.35
2023-05-07T09:14:34.320Z,2.40
2023-05-07T09:17:05.335Z,2.28
2023-05-07T09:19:35.658Z,2.67
2023-05-07T09:22:11.757Z,2.63
2023-05-07T09:25:02.032Z,2.40
2023-05-07T09:27:34.062Z,2.38
2023-05-07T09:30:10.095Z,2.67
2023-05-07T09:32:40.555Z,2.50
2023-05-07T09:35:25.481Z,2.58
2023-05-07T09:38:04.492Z,2.78
2023-05-07T09:40:38.334Z,2.80
2023-05-07T09:43:17.118Z,2.65
2023-05-07T09:45:54.237Z,2.83
2023-05-07T09:48:30.261Z,2.65
2023-05-07T09:51:04.071Z,2.50
2023-05-07T09:53:38.156Z,2.75
2023-05-07T09:56:10.284Z,2.50
2023-05-07T09:58:44.965Z,2.70
2023-05-07T10:01:16.379Z,2.45
2023-05-07T10:03:48.171Z,2.53
2023-05-07T10:06:19.380Z,2.70
2023-05-07T10:08:50.299Z,2.80
2023-05-07T10:11:20.254Z,2.53
2023-05-07T10:13:51.618Z,2.50
2023-05-07T10:16:23.772Z,3.17
2023-05-07T10:18:53.938Z,2.55
2023-05-07T10:21:30.543Z,2.63
2023-05-07T10:24:08.902Z,2.65
2023-05-07T10:26:41.020Z,2.42
2023-05-07T10:29:38.323Z,2.70
2023-05-07T10:32:34.950Z,2.80
2023-05-07T10:35:11.625Z,2.50
2023-05-07T10:37:42.380Z,2.72
2023-05-07T10:40:15.188Z,2.78
2023-05-07T10:42:59.906Z,2.60
2023-05-07T10:45:31.699Z,2.55
2023-05-07T10:48:27.319Z,2.50
2023-05-07T10:51:24.384Z,2.63
2023-05-07T10:54:20.392Z,2.42
2023-05-07T10:56:58.783Z,2.20
2023-05-07T10:59:37.092Z,2.60
2023-05-07T11:05:23.110Z,2.28
2023-05-07T11:08:12.609Z,2.35
2023-05-07T11:11:00.245Z,2.30
2023-05-07T11:13:51.544Z,2.55
2023-05-07T11:16:49.976Z,2.55
2023-05-07T11:19:57.352Z,2.60
2023-05-07T11:22:38.273Z,2.35
2023-05-07T11:25:26.061Z,2.30
2023-05-07T11:28:12.672Z,2.45
2023-05-07T11:30:53.955Z,2.42
2023-05-07T11:33:29.258Z,2.67
2023-05-07T11:36:01.993Z,2.65
2023-05-07T11:38:40.816Z,2.42
2023-05-07T11:41:10.320Z,2.38
2023-05-07T11:43:57.013Z,2.55
2023-05-07T11:46:27.781Z,2.55
2023-05-07T11:48:58.201Z,2.50
2023-05-07T11:51:30.488Z,2.70
2023-05-07T11:54:01.607Z,2.77
2023-05-07T11:56:30.997Z,2.65
2023-05-07T11:59:00.828Z,2.63
2023-05-07T12:01:31.854Z,2.72
2023-05-07T12:04:02.000Z,2.80
2023-05-07T12:06:33.841Z,2.70
2023-05-07T12:09:03.204Z,2.88
2023-05-07T12:11:32.642Z,2.53
2023-05-07T12:14:02.037Z,2.45
2023-05-07T12:16:32.656Z,2.75
2023-05-07T12:19:02.580Z,2.53
2023-05-07T12:21:33.299Z,2.40
2023-05-07T12:24:04.347Z,2.47
2023-05-07T12:26:39.031Z,2.42
2023-05-07T12:29:10.161Z,2.63
2023-05-07T12:31:44.682Z,2.65
2023-05-07T12:34:14.438Z,2.60
2023-05-07T12:36:45.084Z,2.60
2023-05-07T12:39:15.127Z,2.50
2023-05-07T12:42:01.055Z,2.67
2023-05-07T12:47:06.424Z,2.22
2023-05-07T12:49:40.687Z,2.55
2023-05-07T12:52:12.873Z,2.50
2023-05-07T12:54:43.176Z,2.60
2023-05-07T12:57:13.580Z,2.53
2023-05-07T12:59:46.346Z,2.47
2023-05-07T13:02:17.647Z,2.38
2023-05-07T13:04:51.059Z,2.42
2023-05-07T13:07:21.853Z,2.30
2023-05-07T13:09:52.240Z,2.20
2023-05-07T13:12:21.614Z,2.47
2023-05-07T13:14:51.422Z,2.45
2023-05-07T13:17:21.860Z,2.22
2023-05-07T13:19:52.528Z,2.30
2023-05-07T13:22:22.076Z,2.40
2023-05-07T13:24:52.399Z,2.40
2023-05-07T13:27:22.463Z,2.25
2023-05-07T13:29:52.563Z,2.33
2023-05-07T13:32:22.123Z,2.13
2023-05-07T13:34:51.468Z,2.20
2023-05-07T13:37:21.951Z,2.10
2023-05-07T13:39:51.067Z,2.42
2023-05-07T13:42:20.957Z,2.10
2023-05-07T13:44:50.674Z,2.30
2023-05-07T13:47:21.110Z,2.10
2023-05-07T13:49:52.178Z,2.10
2023-05-07T13:52:22.567Z,2.17
2023-05-07T13:54:53.950Z,2.25
2023-05-07T13:57:24.508Z,2.25
2023-05-07T13:59:54.589Z,2.10
2023-05-07T14:02:24.897Z,2.13
2023-05-07T14:04:55.586Z,2.13
2023-05-07T14:07:26.003Z,2.13
2023-05-07T14:09:54.851Z,2.20
2023-05-07T14:12:24.504Z,1.98
2023-05-07T14:14:54.814Z,2.08
2023-05-07T14:17:26.987Z,2.38
2023-05-07T14:19:57.141Z,2.10
2023-05-07T14:22:27.944Z,2.25
2023-05-07T14:25:06.304Z,2.00
2023-05-07T14:27:37.777Z,2.17
2023-05-07T14:30:07.895Z,2.10
2023-05-07T14:32:38.246Z,2.10
2023-05-07T14:35:08.225Z,2.20
2023-05-07T14:37:37.434Z,1.73
2023-05-07T14:40:07.907Z,2.28
2023-05-07T14:42:37.884Z,2.00
2023-05-07T14:45:08.871Z,2.05
2023-05-07T14:47:38.553Z,2.20
2023-05-07T14:50:09.453Z,2.00
2023-05-07T14:52:38.589Z,2.38
2023-05-07T14:55:10.394Z,2.20
2023-05-07T14:57:42.100Z,2.20
2023-05-07T15:00:13.320Z,2.20
2023-05-07T15:02:46.925Z,2.30
2023-05-07T15:05:20.013Z,2.10
2023-05-07T15:07:49.230Z,2.00
2023-05-07T15:10:19.650Z,1.92
2023-05-07T15:12:49.891Z,2.20
2023-05-07T15:15:18.842Z,2.15
2023-05-07T15:17:49.623Z,2.30
2023-05-07T15:20:19.412Z,2.00
2023-05-07T15:22:49.685Z,2.40
2023-05-07T15:25:20.420Z,2.20
2023-05-07T15:27:51.352Z,2.10
2023-05-07T15:30:22.038Z,2.22
2023-05-07T15:32:53.629Z,2.20
2023-05-07T15:35:24.517Z,2.05
2023-05-07T15:37:56.994Z,2.22
2023-05-07T15:40:31.044Z,2.20
2023-05-07T15:43:01.818Z,2.30
2023-05-07T15:45:32.174Z,2.30
2023-05-07T15:48:01.662Z,2.10
2023-05-07T15:50:31.334Z,2.13
2023-05-07T15:53:01.183Z,2.25
2023-05-07T15:55:32.750Z,2.30
2023-05-07T15:58:02.613Z,2.50
2023-05-07T16:00:33.588Z,2.22
2023-05-07T16:03:04.294Z,2.30
2023-05-07T16:05:34.662Z,2.10
2023-05-07T16:08:05.425Z,2.30
2023-05-07T16:10:35.112Z,2.30
2023-05-07T16:13:06.422Z,2.40
2023-05-07T16:15:36.687Z,2.50
2023-05-07T16:18:06.684Z,2.35
2023-05-07T16:20:37.053Z,2.20
2023-05-07T16:23:06.554Z,2.33
2023-05-07T16:25:36.963Z,2.03
2023-05-07T16:28:09.439Z,2.40
2023-05-07T16:30:39.275Z,2.35
2023-05-07T16:33:09.648Z,2.20
2023-05-07T16:35:38.247Z,2.30
2023-05-07T16:38:11.916Z,2.15
2023-05-07T16:40:42.131Z,2.20
2023-05-07T16:43:11.829Z,2.20
2023-05-07T16:45:42.164Z,2.10
2023-05-07T16:48:14.901Z,2.20
2023-05-07T16:50:48.056Z,2.20
2023-05-07T16:53:18.117Z,2.15
2023-05-07T16:55:49.013Z,2.30
2023-05-07T16:58:19.388Z,2.17
2023-05-07T17:00:51.456Z,2.20
2023-05-07T17:03:22.059Z,2.10
2023-05-07T17:05:51.686Z,2.45
2023-05-07T17:08:20.728Z,2.17
2023-05-07T17:10:52.682Z,2.10
2023-05-07T17:13:22.256Z,2.03
2023-05-07T17:15:54.126Z,2.10
2023-05-07T17:18:24.679Z,2.30
2023-05-07T17:20:56.543Z,2.20
2023-05-07T17:23:26.988Z,2.15
2023-05-07T17:25:57.645Z,2.28
2023-05-07T17:28:27.645Z,2.28
2023-05-07T17:30:58.195Z,2.15
2023-05-07T17:33:28.858Z,2.70
2023-05-07T17:35:59.864Z,2.20
2023-05-07T17:38:31.945Z,2.30
2023-05-07T17:41:02.897Z,2.25
2023-05-07T17:43:32.895Z,2.10
2023-05-07T17:46:04.164Z,1.95
2023-05-07T17:48:33.774Z,2.10
2023-05-07T17:51:06.287Z,2.20
2023-05-07T17:53:36.686Z,1.88
2023-05-07T17:56:06.881Z,2.30
2023-05-07T17:58:52.436Z,2.17
2023-05-07T18:04:35.632Z,2.22
2023-05-07T18:07:11.013Z,2.22
2023-05-07T18:09:43.140Z,2.10
2023-05-07T18:12:14.604Z,1.98
2023-05-07T18:15:03.166Z,2.17
2023-05-07T18:18:06.834Z,2.28
2023-05-07T18:20:38.296Z,2.20
2023-05-07T18:23:07.879Z,2.10
2023-05-07T18:25:37.590Z,2.25
2023-05-07T18:28:06.538Z,2.33
2023-05-07T18:30:36.553Z,2.20
2023-05-07T18:33:07.902Z,2.15
2023-05-07T18:35:37.952Z,2.10
2023-05-07T18:38:06.961Z,2.30
2023-05-07T18:40:45.394Z,2.10
2023-05-07T18:43:16.063Z,2.30
2023-05-07T18:45:49.503Z,2.30
2023-05-07T18:48:18.838Z,2.20
2023-05-07T18:50:50.486Z,2.10
2023-05-07T18:53:20.731Z,2.20
2023-05-07T18:55:53.732Z,2.20
2023-05-07T18:58:22.748Z,2.30
2023-05-07T19:00:52.667Z,2.33
2023-05-07T19:03:22.331Z,2.40
2023-05-07T19:05:50.811Z,2.05
2023-05-07T19:08:22.665Z,2.40
2023-05-07T19:10:52.912Z,2.05
2023-05-07T19:13:22.470Z,2.10
2023-05-07T19:15:53.441Z,2.30
2023-05-07T19:18:24.974Z,2.22
2023-05-07T19:20:55.600Z,2.40
2023-05-07T19:23:25.632Z,2.30
2023-05-07T19:25:54.647Z,2.00
2023-05-07T19:28:24.892Z,2.30
2023-05-07T19:30:55.665Z,2.30
2023-05-07T19:33:28.210Z,2.10
2023-05-07T19:35:59.529Z,2.20
2023-05-07T19:38:30.381Z,2.30
2023-05-07T19:41:01.145Z,2.20
2023-05-07T19:43:39.039Z,2.20
2023-05-07T19:46:08.694Z,2.33
2023-05-07T19:48:38.798Z,2.15
2023-05-07T19:58:14.178Z,2.00
2023-05-07T20:00:44.378Z,2.20
2023-05-07T20:03:19.822Z,2.20
2023-05-07T20:05:58.180Z,2.40
2023-05-07T20:08:30.653Z,2.20
2023-05-07T20:11:06.927Z,2.25
2023-05-07T20:13:38.259Z,2.20
2023-05-07T20:16:09.819Z,2.30
2023-05-07T20:18:46.903Z,2.35
2023-05-07T20:21:21.367Z,2.42
2023-05-07T20:23:53.224Z,2.35
2023-05-07T20:26:25.164Z,2.10
2023-05-07T20:28:55.701Z,2.10
2023-05-07T20:31:26.682Z,2.30
2023-05-07T20:33:56.956Z,2.33
2023-05-07T20:36:37.384Z,2.10
2023-05-07T20:39:08.652Z,2.10
2023-05-07T20:41:41.067Z,2.30
2023-05-07T20:44:17.511Z,2.53
2023-05-07T20:46:52.496Z,2.40
2023-05-07T20:49:23.818Z,2.50
2023-05-07T20:51:53.727Z,2.17
2023-05-07T20:54:24.844Z,2.28
2023-05-07T20:56:56.922Z,2.40
2023-05-07T20:59:28.368Z,2.38
2023-05-07T21:01:58.500Z,2.38
2023-05-07T21:05:05.279Z,2.40
2023-05-07T21:07:36.132Z,2.30
2023-05-07T21:10:09.280Z,2.50
2023-05-07T21:16:22.715Z,2.33
2023-05-07T21:18:58.870Z,2.40
2023-05-07T21:21:29.117Z,2.47
2023-05-07T21:24:03.270Z,2.30
2023-05-07T21:26:38.949Z,2.40
2023-05-07T21:29:12.888Z,2.50
2023-05-07T21:31:45.348Z,2.30
2023-05-07T21:34:17.802Z,2.42
2023-05-07T21:36:49.359Z,2.45
2023-05-07T21:39:20.191Z,2.58
2023-05-07T21:41:51.085Z,2.60
2023-05-07T21:44:25.914Z,2.63
2023-05-07T21:46:56.578Z,2.50
2023-05-07T21:49:26.454Z,2.53
2023-05-07T21:52:01.874Z,2.50
2023-05-07T21:54:33.782Z,2.50
2023-05-07T21:57:06.169Z,2.30
2023-05-07T21:59:38.730Z,2.40
2023-05-07T22:02:13.379Z,2.50
2023-05-07T22:04:48.849Z,2.33
2023-05-07T22:07:28.716Z,2.47
2023-05-07T22:09:58.600Z,2.22
2023-05-07T22:12:32.491Z,2.47
2023-05-07T22:15:15.684Z,2.60
2023-05-07T22:20:47.166Z,2.38
2023-05-07T22:23:21.996Z,2.58
2023-05-07T22:26:04.677Z,2.88
2023-05-07T22:28:57.950Z,2.28
2023-05-07T22:31:38.742Z,2.17
2023-05-07T22:34:26.280Z,2.50
2023-05-07T22:36:57.239Z,2.67
2023-05-07T22:39:26.498Z,2.50
2023-05-07T22:41:56.617Z,2.30
2023-05-07T22:44:26.671Z,2.38
2023-05-07T22:46:54.916Z,2.70
2023-05-07T22:49:24.999Z,2.55
2023-05-07T22:51:54.490Z,2.50
2023-05-07T22:54:26.738Z,2.55
2023-05-07T22:56:57.273Z,2.60
2023-05-07T22:59:28.580Z,2.35
2023-05-07T23:01:58.515Z,2.65
2023-05-07T23:04:29.471Z,2.60
2023-05-07T23:06:59.204Z,2.70
2023-05-07T23:09:29.780Z,2.70
2023-05-07T23:11:58.857Z,2.88
2023-05-07T23:14:30.460Z,2.65
2023-05-07T23:17:02.034Z,2.42
2023-05-07T23:19:31.349Z,2.72
2023-05-07T23:22:06.817Z,2.63
2023-05-07T23:24:37.819Z,3.08
2023-05-07T23:27:08.800Z,3.00
2023-05-07T23:29:38.228Z,2.90
2023-05-07T23:32:08.499Z,2.90
2023-05-07T23:34:38.984Z,2.88
2023-05-07T23:37:15.279Z,2.80
2023-05-07T23:39:57.666Z,2.38
2023-05-07T23:42:27.328Z,2.70
2023-05-07T23:44:58.665Z,2.90
2023-05-07T23:47:28.847Z,2.90
2023-05-07T23:49:58.253Z,2.80
2023-05-07T23:52:27.218Z,2.78
2023-05-07T23:54:58.361Z,2.90
2023-05-07T23:57:28.859Z,2.83
